createdAt,value
2022-11-28T00:00:16.054Z,6.18
2022-11-28T00:01:15.971Z,6.14
2022-11-28T00:02:16.024Z,6.18
2022-11-28T00:03:15.936Z,6.11
2022-11-28T00:04:15.839Z,6.10
2022-11-28T00:05:15.630Z,6.04
2022-11-28T00:06:15.549Z,6.13
2022-11-28T00:07:15.546Z,6.07
2022-11-28T00:08:15.375Z,6.14
2022-11-28T00:09:15.294Z,6.14
2022-11-28T00:10:15.211Z,6.13
2022-11-28T00:11:15.123Z,6.15
2022-11-28T00:12:15.038Z,6.13
2022-11-28T00:13:14.951Z,6.21
2022-11-28T00:14:14.869Z,6.26
2022-11-28T00:15:14.784Z,6.24
2022-11-28T00:16:14.859Z,6.21
2022-11-28T00:17:14.611Z,6.17
2022-11-28T00:18:14.531Z,6.18
2022-11-28T00:19:14.442Z,6.21
2022-11-28T00:20:14.472Z,6.15
2022-11-28T00:21:14.381Z,6.14
2022-11-28T00:22:14.190Z,6.22
2022-11-28T00:23:14.110Z,6.17
2022-11-28T00:24:14.021Z,6.30
2022-11-28T00:25:13.932Z,6.18
2022-11-28T00:26:13.855Z,6.33
2022-11-28T00:27:13.766Z,6.30
2022-11-28T00:28:13.682Z,6.34
2022-11-28T00:29:13.596Z,6.33
2022-11-28T00:30:13.511Z,6.32
2022-11-28T00:31:13.483Z,6.30
2022-11-28T00:32:13.382Z,6.29
2022-11-28T00:33:13.255Z,6.34
2022-11-28T00:34:13.172Z,6.37
2022-11-28T00:35:13.087Z,6.42
2022-11-28T00:36:13.113Z,6.24
2022-11-28T00:37:12.917Z,6.39
2022-11-28T00:38:12.832Z,6.42
2022-11-28T00:39:12.748Z,6.34
2022-11-28T00:40:12.664Z,6.36
2022-11-28T00:41:12.578Z,6.42
2022-11-28T00:42:12.497Z,6.48
2022-11-28T00:43:12.409Z,6.50
2022-11-28T00:44:12.325Z,6.52
2022-11-28T00:45:12.238Z,6.48
2022-11-28T00:46:12.268Z,6.44
2022-11-28T00:47:12.070Z,6.48
2022-11-28T00:48:11.984Z,6.50
2022-11-28T00:49:11.902Z,6.48
2022-11-28T00:50:11.817Z,6.42
2022-11-28T00:51:11.730Z,6.55
2022-11-28T00:52:11.761Z,6.45
2022-11-28T00:53:11.561Z,6.47
2022-11-28T00:54:11.477Z,6.52
2022-11-28T00:55:11.390Z,6.52
2022-11-28T00:56:11.315Z,6.50
2022-11-28T00:57:11.220Z,6.51
2022-11-28T00:58:11.142Z,6.59
2022-11-28T00:59:11.056Z,6.55
2022-11-28T01:00:10.968Z,6.54
2022-11-28T01:01:10.986Z,6.51
2022-11-28T01:02:10.948Z,6.52
2022-11-28T01:03:10.712Z,6.47
2022-11-28T01:04:10.629Z,6.50
2022-11-28T01:05:10.540Z,6.41
2022-11-28T01:06:10.466Z,6.41
2022-11-28T01:07:10.376Z,6.48
2022-11-28T01:08:10.401Z,6.45
2022-11-28T01:09:10.200Z,6.39
2022-11-28T01:10:10.121Z,6.41
2022-11-28T01:11:10.034Z,6.44
2022-11-28T01:12:09.949Z,6.32
2022-11-28T01:13:09.863Z,6.36
2022-11-28T01:14:09.780Z,6.34
2022-11-28T01:15:09.694Z,6.37
2022-11-28T01:16:09.789Z,6.36
2022-11-28T01:17:09.523Z,6.36
2022-11-28T01:18:09.439Z,6.30
2022-11-28T01:19:09.355Z,6.33
2022-11-28T01:20:09.274Z,6.29
2022-11-28T01:21:09.187Z,6.42
2022-11-28T01:22:09.102Z,6.27
2022-11-28T01:23:09.217Z,6.37
2022-11-28T01:24:09.043Z,6.36
2022-11-28T01:25:08.846Z,6.30
2022-11-28T01:26:08.762Z,6.30
2022-11-28T01:27:08.679Z,6.32
2022-11-28T01:28:08.593Z,6.36
2022-11-28T01:29:08.507Z,6.33
2022-11-28T01:30:08.424Z,6.34
2022-11-28T01:31:08.382Z,6.24
2022-11-28T01:32:08.254Z,6.30
2022-11-28T01:33:08.169Z,6.24
2022-11-28T01:34:08.088Z,6.30
2022-11-28T01:35:08.000Z,6.29
2022-11-28T01:36:07.917Z,6.26
2022-11-28T01:37:07.831Z,6.26
2022-11-28T01:38:07.746Z,6.36
2022-11-28T01:39:07.683Z,6.22
2022-11-28T01:40:07.690Z,6.33
2022-11-28T01:41:07.496Z,6.15
2022-11-28T01:42:07.412Z,6.14
2022-11-28T01:43:07.576Z,6.15
2022-11-28T01:44:07.239Z,6.07
2022-11-28T01:45:07.155Z,6.10
2022-11-28T01:46:07.071Z,6.08
2022-11-28T01:47:07.064Z,6.06
2022-11-28T01:48:06.899Z,6.03
2022-11-28T01:49:07.113Z,6.06
2022-11-28T01:50:06.726Z,6.08
2022-11-28T01:51:06.895Z,6.08
2022-11-28T01:52:06.563Z,6.06
2022-11-28T01:53:06.473Z,6.13
2022-11-28T01:54:06.387Z,6.08
2022-11-28T01:55:06.304Z,5.97
2022-11-28T01:56:06.325Z,5.96
2022-11-28T01:57:06.250Z,6.00
2022-11-28T01:58:06.047Z,5.99
2022-11-28T01:59:05.964Z,5.99
2022-11-28T02:00:05.875Z,5.97
2022-11-28T02:01:05.915Z,5.99
2022-11-28T02:02:05.761Z,5.97
2022-11-28T02:03:05.622Z,5.96
2022-11-28T02:04:05.540Z,5.85
2022-11-28T02:05:05.453Z,5.99
2022-11-28T02:06:05.367Z,6.03
2022-11-28T02:07:05.282Z,5.97
2022-11-28T02:08:05.247Z,5.95
2022-11-28T02:09:05.112Z,6.00
2022-11-28T02:10:05.027Z,5.90
2022-11-28T02:11:04.943Z,5.90
2022-11-28T02:12:04.970Z,5.85
2022-11-28T02:13:04.779Z,5.88
2022-11-28T02:14:04.687Z,5.90
2022-11-28T02:15:04.607Z,5.89
2022-11-28T02:16:04.575Z,5.88
2022-11-28T02:17:04.433Z,5.81
2022-11-28T02:18:04.347Z,5.95
2022-11-28T02:19:04.265Z,5.89
2022-11-28T02:20:04.177Z,5.92
2022-11-28T02:21:04.094Z,5.93
2022-11-28T02:22:04.009Z,5.95
2022-11-28T02:23:03.925Z,5.86
2022-11-28T02:24:03.888Z,5.92
2022-11-28T02:25:03.753Z,5.90
2022-11-28T02:26:03.667Z,5.93
2022-11-28T02:27:03.583Z,5.92
2022-11-28T02:28:03.610Z,5.95
2022-11-28T02:29:03.415Z,5.93
2022-11-28T02:30:03.328Z,5.92
2022-11-28T02:31:03.268Z,5.90
2022-11-28T02:32:03.159Z,5.95
2022-11-28T02:33:03.076Z,5.96
2022-11-28T02:34:02.987Z,5.93
2022-11-28T02:35:02.905Z,5.96
2022-11-28T02:36:02.818Z,5.97
2022-11-28T02:37:02.734Z,6.00
2022-11-28T02:38:02.647Z,5.95
2022-11-28T02:39:02.565Z,5.90
2022-11-28T02:40:02.480Z,5.92
2022-11-28T02:41:02.399Z,5.92
2022-11-28T02:42:02.310Z,5.92
2022-11-28T02:43:02.223Z,5.97
2022-11-28T02:44:04.367Z,5.97
2022-11-28T02:45:02.055Z,5.92
2022-11-28T02:46:01.966Z,5.88
2022-11-28T02:47:01.936Z,5.81
2022-11-28T02:48:01.797Z,5.89
2022-11-28T02:49:01.714Z,5.78
2022-11-28T02:50:01.639Z,5.85
2022-11-28T02:51:01.544Z,5.85
2022-11-28T02:52:01.460Z,5.89
2022-11-28T02:53:01.379Z,5.95
2022-11-28T02:54:01.286Z,5.86
2022-11-28T02:55:01.206Z,5.86
2022-11-28T02:56:01.118Z,5.88
2022-11-28T02:57:01.028Z,5.83
2022-11-28T02:58:00.947Z,5.74
2022-11-28T02:59:00.860Z,5.72
2022-11-28T03:00:00.884Z,5.70
2022-11-28T03:01:00.792Z,5.63
2022-11-28T03:02:00.654Z,5.71
2022-11-28T03:03:00.518Z,5.71
2022-11-28T03:04:00.432Z,5.72
2022-11-28T03:05:00.447Z,5.70
2022-11-28T03:06:00.261Z,5.77
2022-11-28T03:07:00.178Z,5.63
2022-11-28T03:08:00.211Z,5.68
2022-11-28T03:09:00.005Z,5.71
2022-11-28T03:09:59.924Z,5.74
2022-11-28T03:10:59.835Z,5.74
2022-11-28T03:11:59.849Z,5.88
2022-11-28T03:12:59.666Z,5.80
2022-11-28T03:13:59.580Z,5.78
2022-11-28T03:14:59.493Z,5.86
2022-11-28T03:15:59.597Z,5.86
2022-11-28T03:16:59.324Z,5.80
2022-11-28T03:17:59.239Z,5.72
2022-11-28T03:18:59.161Z,5.74
2022-11-28T03:19:59.068Z,5.80
2022-11-28T03:20:58.991Z,5.85
2022-11-28T03:21:58.899Z,5.86
2022-11-28T03:22:58.811Z,5.81
2022-11-28T03:23:58.727Z,5.89
2022-11-28T03:24:58.643Z,5.88
2022-11-28T03:25:58.555Z,5.89
2022-11-28T03:26:58.473Z,5.86
2022-11-28T03:27:58.386Z,5.93
2022-11-28T03:28:58.353Z,5.89
2022-11-28T03:29:58.217Z,5.92
2022-11-28T03:30:58.134Z,5.90
2022-11-28T03:31:58.249Z,5.88
2022-11-28T03:32:57.963Z,5.92
2022-11-28T03:33:57.876Z,5.95
2022-11-28T03:34:57.793Z,5.93
2022-11-28T03:35:57.706Z,5.92
2022-11-28T03:36:57.624Z,5.93
2022-11-28T03:37:57.537Z,5.92
2022-11-28T03:38:57.452Z,5.99
2022-11-28T03:39:57.367Z,5.96
2022-11-28T03:40:57.279Z,5.95
2022-11-28T03:41:57.443Z,5.90
2022-11-28T03:42:57.111Z,5.77
2022-11-28T03:43:57.024Z,5.89
2022-11-28T03:44:56.942Z,5.80
2022-11-28T03:45:56.857Z,5.78
2022-11-28T03:46:56.845Z,5.86
2022-11-28T03:47:56.800Z,5.80
2022-11-28T03:48:56.599Z,5.85
2022-11-28T03:49:56.714Z,5.85
2022-11-28T03:50:56.433Z,5.89
2022-11-28T03:51:56.442Z,5.80
2022-11-28T03:52:56.308Z,5.75
2022-11-28T03:53:56.173Z,5.80
2022-11-28T03:54:56.088Z,5.80
2022-11-28T03:55:56.086Z,5.85
2022-11-28T03:56:55.918Z,5.75
2022-11-28T03:57:55.831Z,5.78
2022-11-28T03:58:55.747Z,5.85
2022-11-28T03:59:55.663Z,5.72
2022-11-28T04:00:55.655Z,5.77
2022-11-28T04:01:55.591Z,5.68
2022-11-28T04:02:55.554Z,5.78
2022-11-28T04:03:55.634Z,5.70
2022-11-28T04:04:55.285Z,5.72
2022-11-28T04:05:55.253Z,5.70
2022-11-28T04:06:55.063Z,5.80
2022-11-28T04:07:55.016Z,5.85
2022-11-28T04:08:54.897Z,5.85
2022-11-28T04:09:54.810Z,5.81
2022-11-28T04:10:54.723Z,5.77
2022-11-28T04:11:54.638Z,5.71
2022-11-28T04:12:54.552Z,5.68
2022-11-28T04:13:54.468Z,5.74
2022-11-28T04:14:54.382Z,5.78
2022-11-28T04:15:54.334Z,5.72
2022-11-28T04:16:54.376Z,5.72
2022-11-28T04:17:54.424Z,5.54
2022-11-28T04:18:54.042Z,5.53
2022-11-28T04:19:54.070Z,5.49
2022-11-28T04:20:53.869Z,5.45
2022-11-28T04:21:53.785Z,5.49
2022-11-28T04:22:53.697Z,5.44
2022-11-28T04:23:53.614Z,5.38
2022-11-28T04:24:53.530Z,5.62
2022-11-28T04:25:53.442Z,5.56
2022-11-28T04:26:53.354Z,5.53
2022-11-28T04:27:53.270Z,5.52
2022-11-28T04:28:53.183Z,5.52
2022-11-28T04:29:53.148Z,5.53
2022-11-28T04:30:53.015Z,5.52
2022-11-28T04:31:52.974Z,5.57
2022-11-28T04:32:52.840Z,5.57
2022-11-28T04:33:52.758Z,5.60
2022-11-28T04:34:52.671Z,5.50
2022-11-28T04:35:52.702Z,5.50
2022-11-28T04:36:52.498Z,5.50
2022-11-28T04:37:52.415Z,5.50
2022-11-28T04:38:52.329Z,5.47
2022-11-28T04:39:52.493Z,5.41
2022-11-28T04:40:52.159Z,5.39
2022-11-28T04:41:52.073Z,5.44
2022-11-28T04:42:53.138Z,5.53
2022-11-28T04:43:51.902Z,5.56
2022-11-28T04:44:51.817Z,5.53
2022-11-28T04:45:51.744Z,5.53
2022-11-28T04:46:51.647Z,5.52
2022-11-28T04:47:51.560Z,5.53
2022-11-28T04:48:51.474Z,5.52
2022-11-28T04:49:51.389Z,5.54
2022-11-28T04:50:51.305Z,5.63
2022-11-28T04:51:51.333Z,5.52
2022-11-28T04:52:51.131Z,5.54
2022-11-28T04:53:51.051Z,5.49
2022-11-28T04:54:50.963Z,5.52
2022-11-28T04:55:50.876Z,5.54
2022-11-28T04:56:50.792Z,5.50
2022-11-28T04:57:56.902Z,5.53
2022-11-28T04:58:50.624Z,5.53
2022-11-28T04:59:50.539Z,5.47
2022-11-28T05:00:50.499Z,5.49
2022-11-28T05:01:50.425Z,5.60
2022-11-28T05:02:50.279Z,5.57
2022-11-28T05:03:50.194Z,5.57
2022-11-28T05:04:50.109Z,5.59
2022-11-28T05:05:50.029Z,5.56
2022-11-28T05:06:49.940Z,5.62
2022-11-28T05:07:50.009Z,5.63
2022-11-28T05:08:49.768Z,5.59
2022-11-28T05:09:49.684Z,5.68
2022-11-28T05:10:49.596Z,5.65
2022-11-28T05:11:49.512Z,5.62
2022-11-28T05:12:49.428Z,5.68
2022-11-28T05:13:49.345Z,5.65
2022-11-28T05:14:49.254Z,5.62
2022-11-28T05:15:49.220Z,5.70
2022-11-28T05:16:49.170Z,5.63
2022-11-28T05:17:49.003Z,5.60
2022-11-28T05:18:48.914Z,5.62
2022-11-28T05:19:48.830Z,5.63
2022-11-28T05:20:48.743Z,5.78
2022-11-28T05:21:48.665Z,5.65
2022-11-28T05:22:48.574Z,5.67
2022-11-28T05:23:48.604Z,5.63
2022-11-28T05:24:48.405Z,5.63
2022-11-28T05:25:48.321Z,5.62
2022-11-28T05:26:48.232Z,5.62
2022-11-28T05:27:48.148Z,5.57
2022-11-28T05:28:48.061Z,5.63
2022-11-28T05:29:52.032Z,5.59
2022-11-28T05:30:47.902Z,5.65
2022-11-28T05:31:47.881Z,5.65
2022-11-28T05:32:47.732Z,5.57
2022-11-28T05:33:47.651Z,5.67
2022-11-28T05:34:47.652Z,5.70
2022-11-28T05:35:47.467Z,5.63
2022-11-28T05:36:47.382Z,5.62
2022-11-28T05:37:47.296Z,5.59
2022-11-28T05:38:47.209Z,5.62
2022-11-28T05:39:47.238Z,5.67
2022-11-28T05:40:47.037Z,5.65
2022-11-28T05:41:46.954Z,5.57
2022-11-28T05:42:46.867Z,5.68
2022-11-28T05:43:46.780Z,5.54
2022-11-28T05:44:46.693Z,5.59
2022-11-28T05:45:46.675Z,5.65
2022-11-28T05:46:46.526Z,5.59
2022-11-28T05:47:46.436Z,5.62
2022-11-28T05:48:46.351Z,5.67
2022-11-28T05:49:46.268Z,5.62
2022-11-28T05:50:46.184Z,5.56
2022-11-28T05:51:46.246Z,5.62
2022-11-28T05:52:46.009Z,5.62
2022-11-28T05:53:45.926Z,5.68
2022-11-28T05:54:45.836Z,5.67
2022-11-28T05:55:45.871Z,5.60
2022-11-28T05:56:45.670Z,5.72
2022-11-28T05:57:45.583Z,5.68
2022-11-28T05:58:45.497Z,5.75
2022-11-28T05:59:45.652Z,5.63
2022-11-28T06:00:45.325Z,5.68
2022-11-28T06:01:45.531Z,5.74
2022-11-28T06:02:45.155Z,5.74
2022-11-28T06:03:45.067Z,5.75
2022-11-28T06:04:45.021Z,5.71
2022-11-28T06:05:45.013Z,5.63
2022-11-28T06:06:44.812Z,5.74
2022-11-28T06:07:44.819Z,5.71
2022-11-28T06:08:44.638Z,5.72
2022-11-28T06:09:44.948Z,5.67
2022-11-28T06:10:44.467Z,5.77
2022-11-28T06:11:44.496Z,5.72
2022-11-28T06:12:44.296Z,5.74
2022-11-28T06:13:44.213Z,5.78
2022-11-28T06:14:44.125Z,5.80
2022-11-28T06:15:44.038Z,5.77
2022-11-28T06:16:43.994Z,5.78
2022-11-28T06:17:43.866Z,5.81
2022-11-28T06:18:43.781Z,5.88
2022-11-28T06:19:43.969Z,5.85
2022-11-28T06:20:43.610Z,5.83
2022-11-28T06:21:43.526Z,5.89
2022-11-28T06:22:43.438Z,5.80
2022-11-28T06:23:43.353Z,5.88
2022-11-28T06:24:43.267Z,5.86
2022-11-28T06:25:43.179Z,5.88
2022-11-28T06:26:43.106Z,5.83
2022-11-28T06:27:43.122Z,5.86
2022-11-28T06:28:42.923Z,5.83
2022-11-28T06:29:43.023Z,5.86
2022-11-28T06:30:42.751Z,5.81
2022-11-28T06:31:42.716Z,5.77
2022-11-28T06:32:42.580Z,5.75
2022-11-28T06:33:42.497Z,5.88
2022-11-28T06:34:42.408Z,5.81
2022-11-28T06:35:42.322Z,5.88
2022-11-28T06:36:42.237Z,5.83
2022-11-28T06:37:42.154Z,5.92
2022-11-28T06:38:42.068Z,5.81
2022-11-28T06:39:42.204Z,5.85
2022-11-28T06:40:41.894Z,5.89
2022-11-28T06:41:41.810Z,5.77
2022-11-28T06:42:41.722Z,5.78
2022-11-28T06:43:41.801Z,5.81
2022-11-28T06:44:41.550Z,5.77
2022-11-28T06:45:41.528Z,5.78
2022-11-28T06:46:41.378Z,5.78
2022-11-28T06:47:41.297Z,5.80
2022-11-28T06:48:41.208Z,5.83
2022-11-28T06:49:41.311Z,5.78
2022-11-28T06:50:41.037Z,5.95
2022-11-28T06:51:40.954Z,5.92
2022-11-28T06:52:40.868Z,5.89
2022-11-28T06:53:40.782Z,5.93
2022-11-28T06:54:40.694Z,5.88
2022-11-28T06:55:40.610Z,5.95
2022-11-28T06:56:40.523Z,5.99
2022-11-28T06:57:40.438Z,5.93
2022-11-28T06:58:40.352Z,5.97
2022-11-28T06:59:40.554Z,5.97
2022-11-28T07:00:40.181Z,5.97
2022-11-28T07:01:40.127Z,5.93
2022-11-28T07:02:40.045Z,5.97
2022-11-28T07:03:39.923Z,6.03
2022-11-28T07:04:39.837Z,5.99
2022-11-28T07:05:39.753Z,5.97
2022-11-28T07:06:39.671Z,5.99
2022-11-28T07:07:53.224Z,5.99
2022-11-28T07:08:39.500Z,6.04
2022-11-28T07:09:39.412Z,6.03
2022-11-28T07:10:39.324Z,5.99
2022-11-28T07:11:39.240Z,6.00
2022-11-28T07:12:39.155Z,6.10
2022-11-28T07:13:39.072Z,6.11
2022-11-28T07:14:38.984Z,6.10
2022-11-28T07:15:39.011Z,6.06
2022-11-28T07:16:38.905Z,6.14
2022-11-28T07:17:38.728Z,6.13
2022-11-28T07:18:38.651Z,6.18
2022-11-28T07:19:38.557Z,6.24
2022-11-28T07:20:38.471Z,6.15
2022-11-28T07:21:38.387Z,6.36
2022-11-28T07:22:38.304Z,6.30
2022-11-28T07:23:38.222Z,6.27
2022-11-28T07:24:38.182Z,6.27
2022-11-28T07:25:38.048Z,6.27
2022-11-28T07:26:38.185Z,6.33
2022-11-28T07:27:37.877Z,6.32
2022-11-28T07:28:37.790Z,6.33
2022-11-28T07:29:37.707Z,6.32
2022-11-28T07:30:37.620Z,6.32
2022-11-28T07:31:37.664Z,6.42
2022-11-28T07:32:37.452Z,6.34
2022-11-28T07:33:37.367Z,6.42
2022-11-28T07:34:37.283Z,6.37
2022-11-28T07:35:37.197Z,6.51
2022-11-28T07:36:37.112Z,6.51
2022-11-28T07:37:37.028Z,6.63
2022-11-28T07:38:36.944Z,6.65
2022-11-28T07:39:36.860Z,6.68
2022-11-28T07:40:36.772Z,6.75
2022-11-28T07:41:36.687Z,6.70
2022-11-28T07:42:36.605Z,6.72
2022-11-28T07:43:36.519Z,6.72
2022-11-28T07:44:36.436Z,6.73
2022-11-28T07:45:53.750Z,6.68
2022-11-28T07:46:36.303Z,6.69
2022-11-28T07:47:36.211Z,6.78
2022-11-28T07:48:36.096Z,6.72
2022-11-28T07:49:36.015Z,6.68
2022-11-28T07:50:35.928Z,6.70
2022-11-28T07:51:35.842Z,6.70
2022-11-28T07:52:35.755Z,6.73
2022-11-28T07:53:35.736Z,6.75
2022-11-28T07:54:35.587Z,6.69
2022-11-28T07:55:35.504Z,6.76
2022-11-28T07:57:10.338Z,6.73
2022-11-28T07:57:35.337Z,6.75
2022-11-28T07:58:35.248Z,6.75
2022-11-28T07:59:35.167Z,6.76
2022-11-28T08:00:35.080Z,6.83
2022-11-28T08:01:35.056Z,6.86
2022-11-28T08:02:34.989Z,6.86
2022-11-28T08:03:34.851Z,6.86
2022-11-28T08:04:34.855Z,6.78
2022-11-28T08:05:34.661Z,6.87
2022-11-28T08:06:34.575Z,6.88
2022-11-28T08:07:34.561Z,6.87
2022-11-28T08:08:34.408Z,6.87
2022-11-28T08:09:34.323Z,6.86
2022-11-28T08:10:34.240Z,6.84
2022-11-28T08:11:34.153Z,6.83
2022-11-28T08:12:34.071Z,6.83
2022-11-28T08:13:33.988Z,6.86
2022-11-28T08:14:33.903Z,6.88
2022-11-28T08:15:33.818Z,6.87
2022-11-28T08:16:33.790Z,6.86
2022-11-28T08:17:33.650Z,6.96
2022-11-28T08:18:33.566Z,6.90
2022-11-28T08:19:35.366Z,6.98
2022-11-28T08:20:33.401Z,6.88
2022-11-28T08:21:33.315Z,6.93
2022-11-28T08:22:33.232Z,6.94
2022-11-28T08:23:33.148Z,6.90
2022-11-28T08:24:33.064Z,6.93
2022-11-28T08:25:32.979Z,6.98
2022-11-28T08:26:32.899Z,6.94
2022-11-28T08:27:32.813Z,7.02
2022-11-28T08:28:32.728Z,6.91
2022-11-28T08:29:32.644Z,6.94
2022-11-28T08:30:32.599Z,6.88
2022-11-28T08:31:32.478Z,6.91
2022-11-28T08:32:32.396Z,6.94
2022-11-28T08:33:32.310Z,6.98
2022-11-28T08:34:32.228Z,7.03
2022-11-28T08:35:32.160Z,7.02
2022-11-28T08:36:32.059Z,7.08
2022-11-28T08:37:31.974Z,7.03
2022-11-28T08:38:31.891Z,7.03
2022-11-28T08:39:31.807Z,7.11
2022-11-28T08:40:31.727Z,7.12
2022-11-28T08:41:31.638Z,7.16
2022-11-28T08:42:31.558Z,7.08
2022-11-28T08:43:31.471Z,7.17
2022-11-28T08:44:31.388Z,7.13
2022-11-28T08:45:31.356Z,7.09
2022-11-28T08:46:31.221Z,7.11
2022-11-28T08:47:31.440Z,7.11
2022-11-28T08:48:31.060Z,7.12
2022-11-28T08:49:30.971Z,7.08
2022-11-28T08:50:30.892Z,7.11
2022-11-28T08:51:30.822Z,7.13
2022-11-28T08:52:30.722Z,7.20
2022-11-28T08:53:30.639Z,7.19
2022-11-28T08:54:30.553Z,7.17
2022-11-28T08:55:32.087Z,7.29
2022-11-28T08:56:30.387Z,7.23
2022-11-28T08:57:30.302Z,7.26
2022-11-28T08:58:30.218Z,7.29
2022-11-28T08:59:30.135Z,7.39
2022-11-28T09:00:30.052Z,7.31
2022-11-28T09:01:30.058Z,7.34
2022-11-28T09:02:29.885Z,7.44
2022-11-28T09:03:29.855Z,7.35
2022-11-28T09:04:29.718Z,7.48
2022-11-28T09:05:29.633Z,7.47
2022-11-28T09:06:29.555Z,7.45
2022-11-28T09:07:29.542Z,7.48
2022-11-28T09:08:29.386Z,7.48
2022-11-28T09:09:32.735Z,7.52
2022-11-28T09:10:29.218Z,7.48
2022-11-28T09:11:29.135Z,7.57
2022-11-28T09:12:29.051Z,7.67
2022-11-28T09:13:28.967Z,7.68
2022-11-28T09:14:28.890Z,7.72
2022-11-28T09:15:28.801Z,7.82
2022-11-28T09:16:28.756Z,7.78
2022-11-28T09:17:28.637Z,7.73
2022-11-28T09:18:28.553Z,7.83
2022-11-28T09:19:28.468Z,7.85
2022-11-28T09:20:28.387Z,7.86
2022-11-28T09:21:28.303Z,7.88
2022-11-28T09:22:28.223Z,7.97
2022-11-28T09:23:28.156Z,7.96
2022-11-28T09:24:28.055Z,8.04
2022-11-28T09:25:27.974Z,7.99
2022-11-28T09:26:27.890Z,8.03
2022-11-28T09:27:27.808Z,8.04
2022-11-28T09:28:27.727Z,8.06
2022-11-28T09:29:27.645Z,8.09
2022-11-28T09:30:27.559Z,8.11
2022-11-28T09:31:27.476Z,8.19
2022-11-28T09:32:27.393Z,8.17
2022-11-28T09:33:27.316Z,8.24
2022-11-28T09:34:27.230Z,8.18
2022-11-28T09:35:27.146Z,8.17
2022-11-28T09:36:27.063Z,8.19
2022-11-28T09:37:26.980Z,8.19
2022-11-28T09:38:26.898Z,8.21
2022-11-28T09:39:26.840Z,8.27
2022-11-28T09:40:26.748Z,8.19
2022-11-28T09:41:26.649Z,8.29
2022-11-28T09:42:26.567Z,8.30
2022-11-28T09:43:26.482Z,8.29
2022-11-28T09:44:26.402Z,8.29
2022-11-28T09:45:26.329Z,8.34
2022-11-28T09:46:26.307Z,8.32
2022-11-28T09:47:26.152Z,8.40
2022-11-28T09:48:26.072Z,8.40
2022-11-28T09:49:25.988Z,8.29
2022-11-28T09:50:25.905Z,8.42
2022-11-28T09:51:25.820Z,8.44
2022-11-28T09:52:25.835Z,8.40
2022-11-28T09:53:25.660Z,8.42
2022-11-28T09:54:25.576Z,8.42
2022-11-28T09:55:25.512Z,8.37
2022-11-28T09:56:25.414Z,8.43
2022-11-28T09:57:25.330Z,8.43
2022-11-28T09:58:25.256Z,8.40
2022-11-28T09:59:25.166Z,8.39
2022-11-28T10:00:25.083Z,8.40
2022-11-28T10:01:25.015Z,8.42
2022-11-28T10:02:24.919Z,8.43
2022-11-28T10:03:24.880Z,8.50
2022-11-28T10:04:24.829Z,8.40
2022-11-28T10:05:24.668Z,8.44
2022-11-28T10:06:24.587Z,8.52
2022-11-28T10:07:24.571Z,8.48
2022-11-28T10:08:24.420Z,8.52
2022-11-28T10:09:24.538Z,8.52
2022-11-28T10:10:24.256Z,8.43
2022-11-28T10:11:24.193Z,8.52
2022-11-28T10:12:24.091Z,8.44
2022-11-28T10:13:24.388Z,8.58
2022-11-28T10:14:23.926Z,8.54
2022-11-28T10:15:23.846Z,8.55
2022-11-28T10:16:23.802Z,8.54
2022-11-28T10:17:23.676Z,8.55
2022-11-28T10:18:23.597Z,8.66
2022-11-28T10:19:52.734Z,8.65
2022-11-28T10:20:23.431Z,8.76
2022-11-28T10:21:23.348Z,8.70
2022-11-28T10:22:23.270Z,8.70
2022-11-28T10:23:23.184Z,8.73
2022-11-28T10:24:23.102Z,8.79
2022-11-28T10:25:23.021Z,8.80
2022-11-28T10:26:22.937Z,8.90
2022-11-28T10:27:26.883Z,8.93
2022-11-28T10:28:22.806Z,8.90
2022-11-28T10:29:22.692Z,8.84
2022-11-28T10:30:22.620Z,8.84
2022-11-28T10:31:22.606Z,8.76
2022-11-28T10:32:22.445Z,8.79
2022-11-28T10:33:22.399Z,8.69
2022-11-28T10:34:22.282Z,8.73
2022-11-28T10:35:27.949Z,8.68
2022-11-28T10:36:22.115Z,8.72
2022-11-28T10:37:22.034Z,8.69
2022-11-28T10:38:21.951Z,8.72
2022-11-28T10:39:21.868Z,8.76
2022-11-28T10:40:21.786Z,8.73
2022-11-28T10:41:21.705Z,8.79
2022-11-28T10:42:21.623Z,8.80
2022-11-28T10:43:21.559Z,8.66
2022-11-28T10:44:21.887Z,8.79
2022-11-28T10:45:21.376Z,8.75
2022-11-28T10:46:21.399Z,8.77
2022-11-28T10:47:21.212Z,8.84
2022-11-28T10:49:21.047Z,8.77
2022-11-28T10:50:20.966Z,8.70
2022-11-28T10:51:20.886Z,8.77
2022-11-28T10:52:20.802Z,8.75
2022-11-28T10:53:20.718Z,8.73
2022-11-28T10:54:20.644Z,8.70
2022-11-28T10:55:20.556Z,8.82
2022-11-28T10:56:20.475Z,8.80
2022-11-28T10:57:20.390Z,8.80
2022-11-28T10:58:20.309Z,8.84
2022-11-28T10:59:20.363Z,8.91
2022-11-28T11:00:20.147Z,8.85
2022-11-28T11:01:20.128Z,8.88
2022-11-28T11:02:19.984Z,8.95
2022-11-28T11:03:19.900Z,8.93
2022-11-28T11:04:19.880Z,8.88
2022-11-28T11:05:19.736Z,8.93
2022-11-28T11:06:19.655Z,8.91
2022-11-28T11:07:23.911Z,9.00
2022-11-28T11:08:19.638Z,9.02
2022-11-28T11:09:19.409Z,8.98
2022-11-28T11:10:19.330Z,9.12
2022-11-28T11:11:19.246Z,9.02
2022-11-28T11:12:19.165Z,9.05
2022-11-28T11:13:19.083Z,9.12
2022-11-28T11:14:19.102Z,9.20
2022-11-28T11:15:18.939Z,9.12
2022-11-28T11:16:18.945Z,9.27
2022-11-28T11:17:18.759Z,9.24
2022-11-28T11:18:18.677Z,9.35
2022-11-28T11:19:18.600Z,9.37
2022-11-28T11:20:18.515Z,9.32
2022-11-28T11:21:18.433Z,9.38
2022-11-28T11:22:18.352Z,9.37
2022-11-28T11:23:18.269Z,9.46
2022-11-28T11:24:18.187Z,9.43
2022-11-28T11:25:18.107Z,9.46
2022-11-28T11:26:18.028Z,9.40
2022-11-28T11:27:17.945Z,9.45
2022-11-28T11:28:17.864Z,9.35
2022-11-28T11:29:17.981Z,9.40
2022-11-28T11:30:17.701Z,9.38
2022-11-28T11:31:17.866Z,9.40
2022-11-28T11:32:17.540Z,9.42
2022-11-28T11:33:17.462Z,9.45
2022-11-28T11:34:17.375Z,9.43
2022-11-28T11:35:17.295Z,9.43
2022-11-28T11:36:17.217Z,9.40
2022-11-28T11:37:17.132Z,9.50
2022-11-28T11:38:17.050Z,9.42
2022-11-28T11:39:16.977Z,9.40
2022-11-28T11:40:16.889Z,9.58
2022-11-28T11:41:16.857Z,9.60
2022-11-28T11:42:16.726Z,9.58
2022-11-28T11:43:16.644Z,9.53
2022-11-28T11:44:16.562Z,9.60
2022-11-28T11:45:16.483Z,9.72
2022-11-28T11:46:16.520Z,9.68
2022-11-28T11:47:16.343Z,9.79
2022-11-28T11:48:16.237Z,9.78
2022-11-28T11:49:16.157Z,9.71
2022-11-28T11:50:16.080Z,9.80
2022-11-28T11:51:15.999Z,9.70
2022-11-28T11:52:15.914Z,9.86
2022-11-28T11:53:15.841Z,9.79
2022-11-28T11:54:15.761Z,9.82
2022-11-28T11:55:15.675Z,9.82
2022-11-28T11:56:15.590Z,9.89
2022-11-28T11:57:32.591Z,9.93
2022-11-28T11:58:15.429Z,9.97
2022-11-28T11:59:15.346Z,10.03
2022-11-28T12:00:15.266Z,9.89
2022-11-28T12:01:15.187Z,9.93
2022-11-28T12:02:15.133Z,10.00
2022-11-28T12:03:15.154Z,9.89
2022-11-28T12:04:43.313Z,9.92
2022-11-28T12:05:14.873Z,9.89
2022-11-28T12:06:15.416Z,9.93
2022-11-28T12:07:14.738Z,9.90
2022-11-28T12:08:14.617Z,9.88
2022-11-28T12:09:14.538Z,9.89
2022-11-28T12:10:14.459Z,9.88
2022-11-28T12:11:14.385Z,9.82
2022-11-28T12:12:14.320Z,9.83
2022-11-28T12:13:14.214Z,9.80
2022-11-28T12:14:14.140Z,9.85
2022-11-28T12:15:14.052Z,9.88
2022-11-28T12:16:13.990Z,9.92
2022-11-28T12:17:40.503Z,9.83
2022-11-28T12:18:13.811Z,9.83
2022-11-28T12:19:13.752Z,9.78
2022-11-28T12:20:13.652Z,9.83
2022-11-28T12:21:13.570Z,9.78
2022-11-28T12:22:13.488Z,9.80
2022-11-28T12:23:17.425Z,9.83
2022-11-28T12:24:13.327Z,9.82
2022-11-28T12:25:13.261Z,9.86
2022-11-28T12:26:13.162Z,9.83
2022-11-28T12:27:13.084Z,9.88
2022-11-28T12:28:13.001Z,9.83
2022-11-28T12:29:12.925Z,9.88
2022-11-28T12:30:12.839Z,9.90
2022-11-28T12:31:12.820Z,9.96
2022-11-28T12:32:12.677Z,9.98
2022-11-28T12:33:12.597Z,10.01
2022-11-28T12:34:12.514Z,9.90
2022-11-28T12:35:12.457Z,9.85
2022-11-28T12:36:12.355Z,9.83
2022-11-28T12:37:12.275Z,9.82
2022-11-28T12:38:12.439Z,9.82
2022-11-28T12:39:12.121Z,9.75
2022-11-28T12:40:12.030Z,9.70
2022-11-28T12:41:11.949Z,9.83
2022-11-28T12:42:11.870Z,9.80
2022-11-28T12:43:11.788Z,9.72
2022-11-28T12:44:11.707Z,9.78
2022-11-28T12:45:11.626Z,9.79
2022-11-28T12:46:11.585Z,9.72
2022-11-28T12:47:11.466Z,9.80
2022-11-28T12:48:11.384Z,9.80
2022-11-28T12:49:11.302Z,9.83
2022-11-28T12:50:11.223Z,9.82
2022-11-28T12:51:11.161Z,9.82
2022-11-28T12:52:11.060Z,9.88
2022-11-28T12:53:10.979Z,9.85
2022-11-28T12:54:10.897Z,9.89
2022-11-28T12:55:10.816Z,9.92
2022-11-28T12:56:10.742Z,9.92
2022-11-28T12:57:10.705Z,9.96
2022-11-28T12:58:10.579Z,10.04
2022-11-28T12:59:10.496Z,10.03
2022-11-28T13:00:10.420Z,10.03
2022-11-28T13:01:10.333Z,10.01
2022-11-28T13:02:10.395Z,10.00
2022-11-28T13:03:10.257Z,10.15
2022-11-28T13:04:10.192Z,10.15
2022-11-28T13:05:10.011Z,10.11
2022-11-28T13:06:09.929Z,10.06
2022-11-28T13:07:09.893Z,10.03
2022-11-28T13:08:09.768Z,10.03
2022-11-28T13:09:09.685Z,9.97
2022-11-28T13:10:09.656Z,9.92
2022-11-28T13:11:09.523Z,9.96
2022-11-28T13:12:09.545Z,9.97
2022-11-28T13:13:09.364Z,9.88
2022-11-28T13:14:09.284Z,9.80
2022-11-28T13:15:09.202Z,9.83
2022-11-28T13:16:09.135Z,9.83
2022-11-28T13:17:09.040Z,9.82
2022-11-28T13:18:09.057Z,9.68